Nambour, Australia
Current Conditions -  °F | °C
As of 9:00 AM on Sunday 21 Dec 2014 (Local Time) from YBBN Reporting Station
Scattered Clouds Scattered Clouds  
Wind Chill: 81°   Ceiling: Unl
Heat Index: 82°   Visibility: 6mi
Dew Point: 64°   Wind: 9mph
Humidity: 58%   Direction: 50°NE
Pressure: 30.06"   Gusts: NA
Location:  26.63°S, 152.96°E
Report Text: YBBN 202300Z 05008KT 9999 FEW032 SCT065 27/18 Q1018 NOSIG
Loading
Personal Weather Stations






























Interactive Weather Map New forecast layout! Learn more

10-Day Weather Forecast

Advertisements
Track Severe Weather on mobile